Time;durP1;ratioP1;P1;durP2;ratioP2;P2;SDS_P1;SDS_P2;PMS_P1;PMS_P2;Temp;Humidity;BMP_temperature;BMP_pressure;BME280_temperature;BME280_humidity;BME280_pressure;Samples;Min_cycle;Max_cycle;Signal;HPM_P1;HPM_P2
2024/01/14 00:01:56;;;;;;;10.68;2.25;;;4.30;99.90;;;;;;6247513;22;20106;-75
2024/01/14 00:04:23;;;;;;;11.07;2.25;;;4.30;99.90;;;;;;6220442;23;20012;-75
2024/01/14 00:06:49;;;;;;;17.95;1.95;;;4.30;99.90;;;;;;6247588;23;20008;-75
2024/01/14 00:09:19;;;;;;;15.07;2.15;;;4.30;99.90;;;;;;6247201;23;20016;-75
2024/01/14 00:11:45;;;;;;;15.10;1.73;;;4.30;99.90;;;;;;6248674;22;20441;-74
2024/01/14 00:14:10;;;;;;;10.05;1.58;;;4.20;99.90;;;;;;6277856;22;20066;-74
2024/01/14 00:16:36;;;;;;;9.68;1.33;;;4.30;99.90;;;;;;6276218;22;20438;-75
2024/01/14 00:19:03;;;;;;;15.77;1.70;;;4.30;99.90;;;;;;6277573;22;20016;-75
2024/01/14 00:21:28;;;;;;;12.85;1.40;;;4.40;99.90;;;;;;6276102;22;20015;-77
2024/01/14 00:23:55;;;;;;;17.63;2.13;;;4.40;99.90;;;;;;6277647;22;20016;-77
2024/01/14 00:26:20;;;;;;;10.00;1.63;;;4.40;99.90;;;;;;6276151;22;20019;-76
2024/01/14 00:28:49;;;;;;;10.60;1.63;;;4.40;99.90;;;;;;6278137;22;20039;-75
2024/01/14 05:00:15;;;;;;;8.73;1.23;;;3.90;99.90;;;;;;6189954;22;21104;-72
2024/01/14 05:02:41;;;;;;;8.25;1.20;;;3.90;99.90;;;;;;6190715;23;20020;-74
2024/01/14 05:05:06;;;;;;;15.98;1.40;;;3.90;99.90;;;;;;6216767;23;20381;-75
2024/01/14 05:07:32;;;;;;;12.15;1.75;;;3.80;99.90;;;;;;6189932;23;20117;-74
2024/01/14 05:09:59;;;;;;;9.73;1.20;;;3.80;99.90;;;;;;6189784;23;20094;-76
2024/01/14 05:12:24;;;;;;;7.40;0.95;;;3.80;99.90;;;;;;6216135;23;20012;-74
2024/01/14 05:14:50;;;;;;;9.73;1.17;;;3.80;99.90;;;;;;6189769;23;20019;-76
2024/01/14 05:17:15;;;;;;;13.07;1.30;;;3.80;99.90;;;;;;6216706;23;20013;-76
2024/01/14 05:19:41;;;;;;;11.65;1.98;;;3.80;99.90;;;;;;6189618;23;20088;-74
2024/01/14 05:22:07;;;;;;;15.23;1.55;;;3.80;99.90;;;;;;6189795;23;20043;-75
2024/01/14 05:24:32;;;;;;;10.52;1.15;;;3.80;99.90;;;;;;6189676;23;20031;-76
2024/01/14 05:26:58;;;;;;;13.25;1.58;;;3.80;99.90;;;;;;6216920;23;20050;-75
2024/01/14 05:29:24;;;;;;;14.30;1.73;;;3.80;99.90;;;;;;6189553;23;20016;-75
2024/01/14 05:31:49;;;;;;;13.15;1.60;;;3.90;99.90;;;;;;6189591;23;20389;-75
2024/01/14 05:34:15;;;;;;;10.32;1.75;;;3.80;99.90;;;;;;6189508;23;20021;-74
2024/01/14 05:36:41;;;;;;;13.00;2.05;;;3.80;99.90;;;;;;6216740;23;20016;-74
2024/01/14 05:39:06;;;;;;;12.43;2.00;;;3.90;99.90;;;;;;6216352;23;20067;-75
2024/01/14 05:41:32;;;;;;;12.18;1.80;;;3.80;99.90;;;;;;6164700;23;20438;-74
2024/01/14 05:43:58;;;;;;;11.60;1.52;;;3.80;99.90;;;;;;6189417;23;20013;-75
2024/01/14 05:46:23;;;;;;;14.45;2.50;;;3.80;99.90;;;;;;6189138;23;20020;-76
2024/01/14 05:48:49;;;;;;;13.85;1.40;;;3.70;99.90;;;;;;6189503;23;20015;-75
2024/01/14 05:51:15;;;;;;;16.38;1.88;;;3.70;99.90;;;;;;6189315;23;20021;-74
2024/01/14 05:53:40;;;;;;;15.50;1.95;;;3.60;99.90;;;;;;6216346;23;20438;-74
2024/01/14 05:56:06;;;;;;;21.73;1.90;;;3.60;99.90;;;;;;6189233;23;20338;-73
2024/01/14 05:58:34;;;;;;;14.98;1.30;;;3.60;99.90;;;;;;6164472;23;20059;-75
2024/01/14 06:01:00;;;;;;;11.25;1.50;;;3.60;99.90;;;;;;6215915;23;20012;-74
2024/01/14 06:03:26;;;;;;;15.68;1.90;;;3.50;99.90;;;;;;6216024;23;20383;-75
2024/01/14 06:05:52;;;;;;;12.05;1.40;;;3.50;99.90;;;;;;6164495;23;20051;-75
2024/01/14 06:08:17;;;;;;;12.30;1.50;;;3.50;99.90;;;;;;6189297;23;20017;-74
2024/01/14 06:10:43;;;;;;;21.92;1.70;;;3.50;99.90;;;;;;6189252;23;20020;-75
2024/01/14 06:13:09;;;;;;;12.73;1.50;;;3.50;99.90;;;;;;6189305;23;20039;-75
2024/01/14 06:15:34;;;;;;;8.20;1.35;;;3.50;99.90;;;;;;6189583;23;20040;-74
2024/01/14 06:18:00;;;;;;;10.45;1.98;;;3.50;99.90;;;;;;6189085;23;20469;-74
2024/01/14 06:20:25;;;;;;;10.40;2.38;;;3.60;99.90;;;;;;6215940;23;20016;-76
2024/01/14 06:22:51;;;;;;;10.48;1.80;;;3.60;99.90;;;;;;6215562;23;20004;-75
2024/01/14 06:25:17;;;;;;;14.60;2.85;;;3.60;99.90;;;;;;6215682;23;20008;-76
2024/01/14 06:27:42;;;;;;;7.60;1.50;;;3.60;99.90;;;;;;6189144;23;20409;-75
2024/01/14 06:30:08;;;;;;;10.13;1.45;;;3.70;99.90;;;;;;6215975;23;20011;-76
2024/01/14 06:32:34;;;;;;;11.10;1.40;;;3.80;99.90;;;;;;6188896;23;20019;-74
2024/01/14 06:35:00;;;;;;;14.10;1.50;;;3.70;99.90;;;;;;6216084;23;20009;-76
2024/01/14 06:37:25;;;;;;;13.00;1.15;;;3.80;99.90;;;;;;6189111;23;20334;-75
2024/01/14 06:39:51;;;;;;;12.80;1.60;;;3.80;99.90;;;;;;6188786;23;20104;-74
2024/01/14 06:42:17;;;;;;;11.50;1.50;;;3.80;99.90;;;;;;6188976;23;20025;-76
2024/01/14 06:44:42;;;;;;;14.57;2.00;;;3.90;99.90;;;;;;6188833;23;20017;-76
2024/01/14 06:47:08;;;;;;;15.95;1.45;;;3.90;99.90;;;;;;6188973;23;20092;-76
2024/01/14 06:49:33;;;;;;;12.10;1.30;;;3.90;99.90;;;;;;6215822;23;20088;-75
2024/01/14 06:51:59;;;;;;;13.73;1.52;;;3.80;99.90;;;;;;6188926;23;20504;-74
2024/01/14 06:54:25;;;;;;;15.82;2.88;;;3.80;99.90;;;;;;6215848;23;20019;-75
2024/01/14 06:56:50;;;;;;;7.85;1.80;;;3.90;99.90;;;;;;6188861;23;20342;-75
2024/01/14 06:59:21;;;;;;;15.05;1.75;;;3.80;99.90;;;;;;6215733;23;20447;-75
2024/01/14 07:01:47;;;;;;;13.15;2.85;;;3.80;99.90;;;;;;6188414;23;20017;-76
2024/01/14 07:04:14;;;;;;;13.88;2.05;;;3.80;99.90;;;;;;6188839;23;20043;-75
2024/01/14 07:06:39;;;;;;;18.10;2.10;;;3.80;99.90;;;;;;6188805;23;20016;-73
2024/01/14 07:09:08;;;;;;;20.33;2.33;;;3.80;99.90;;;;;;6188849;23;20358;-74
2024/01/14 07:11:34;;;;;;;15.52;2.17;;;3.80;99.90;;;;;;6188870;23;20028;-76
2024/01/14 07:14:00;;;;;;;11.10;3.33;;;3.80;99.90;;;;;;6215195;23;20013;-73
2024/01/14 07:16:25;;;;;;;15.15;2.17;;;3.80;99.90;;;;;;6188856;23;20027;-76
2024/01/14 07:18:51;;;;;;;9.52;1.98;;;3.70;99.90;;;;;;6215627;23;20044;-75
2024/01/14 07:21:21;;;;;;;15.10;2.00;;;3.70;99.90;;;;;;6188752;23;20055;-74
2024/01/14 07:23:46;;;;;;;9.73;1.63;;;3.70;99.90;;;;;;6188881;23;20013;-75
2024/01/14 07:26:17;;;;;;;14.52;1.58;;;3.70;99.90;;;;;;6189139;23;20015;-74
2024/01/14 07:28:43;;;;;;;11.27;1.42;;;3.70;99.90;;;;;;6188695;23;20023;-74
2024/01/14 07:31:09;;;;;;;7.45;1.33;;;3.70;99.90;;;;;;6188382;23;20016;-75
2024/01/14 07:33:35;;;;;;;7.40;1.00;;;3.70;99.90;;;;;;6215289;23;20087;-74
2024/01/14 07:36:01;;;;;;;6.53;1.30;;;3.70;99.90;;;;;;6188768;23;20090;-74
2024/01/14 07:38:26;;;;;;;8.73;1.25;;;3.70;99.90;;;;;;6188709;23;20381;-76
2024/01/14 07:40:52;;;;;;;6.22;1.08;;;3.70;99.90;;;;;;6188650;23;20021;-77
2024/01/14 07:43:17;;;;;;;7.82;1.30;;;3.70;99.90;;;;;;6215663;23;20062;-74
2024/01/14 07:45:43;;;;;;;13.10;1.30;;;3.70;99.90;;;;;;6215575;23;20008;-74
2024/01/14 07:48:09;;;;;;;7.30;1.55;;;3.70;99.90;;;;;;6215133;23;20465;-75
2024/01/14 07:50:34;;;;;;;6.80;1.33;;;3.70;99.90;;;;;;6215478;23;20427;-76
2024/01/14 07:53:00;;;;;;;8.55;1.00;;;3.70;99.90;;;;;;6215303;23;20013;-74
2024/01/14 07:55:26;;;;;;;11.93;1.10;;;3.70;99.90;;;;;;6188525;23;20021;-75
2024/01/14 07:57:51;;;;;;;12.10;1.52;;;3.70;99.90;;;;;;6215330;23;20039;-74
2024/01/14 08:00:17;;;;;;;8.82;1.10;;;3.60;99.90;;;;;;6188208;23;20016;-74
2024/01/14 08:02:43;;;;;;;5.70;0.85;;;3.70;99.90;;;;;;6188418;23;20012;-76
2024/01/14 08:05:09;;;;;;;5.45;0.63;;;3.70;99.90;;;;;;6215548;23;20094;-73
2024/01/14 08:07:35;;;;;;;9.05;0.70;;;3.70;99.90;;;;;;6188706;23;20013;-73
2024/01/14 08:10:01;;;;;;;10.07;1.13;;;3.70;99.90;;;;;;6188827;23;20020;-75
2024/01/14 08:12:27;;;;;;;7.30;1.02;;;3.80;99.90;;;;;;6188491;23;20095;-76
2024/01/14 08:14:52;;;;;;;7.45;1.00;;;3.80;99.90;;;;;;6190178;23;20382;-76
2024/01/14 08:17:18;;;;;;;6.07;0.73;;;3.90;99.90;;;;;;6190246;23;20059;-74
2024/01/14 08:19:45;;;;;;;12.88;1.88;;;3.90;99.90;;;;;;6217096;23;20011;-75
2024/01/14 08:22:10;;;;;;;8.10;1.00;;;4.00;99.90;;;;;;6190165;23;20013;-74
2024/01/14 08:24:36;;;;;;;5.53;1.00;;;4.00;99.90;;;;;;6216517;23;20331;-75
2024/01/14 08:27:02;;;;;;;8.63;1.08;;;4.00;99.90;;;;;;6190268;23;20008;-74
2024/01/14 08:29:27;;;;;;;8.65;1.58;;;4.00;99.90;;;;;;6216986;23;20009;-76
2024/01/14 08:31:53;;;;;;;6.30;1.10;;;4.00;99.90;;;;;;6216628;23;20390;-78
2024/01/14 08:34:19;;;;;;;17.15;1.40;;;4.00;99.90;;;;;;6190071;23;20096;-76
2024/01/14 08:36:45;;;;;;;8.23;2.05;;;4.10;99.90;;;;;;6216728;23;20387;-76
2024/01/14 08:39:11;;;;;;;11.13;1.85;;;4.10;99.90;;;;;;6216534;23;20058;-76
2024/01/14 08:41:36;;;;;;;6.80;1.42;;;4.10;99.90;;;;;;6189841;23;20016;-75
2024/01/14 08:44:06;;;;;;;8.98;1.40;;;4.10;99.90;;;;;;6189985;23;20015;-75
2024/01/14 08:46:33;;;;;;;11.18;1.55;;;4.10;99.90;;;;;;6217029;23;20016;-75
2024/01/14 08:48:59;;;;;;;7.47;0.85;;;4.10;99.90;;;;;;6217019;23;20393;-76
2024/01/14 08:51:24;;;;;;;10.07;1.05;;;4.10;99.90;;;;;;6189994;23;20020;-75
2024/01/14 08:53:50;;;;;;;5.90;0.63;;;4.10;99.90;;;;;;6165323;23;20017;-74
2024/01/14 08:56:15;;;;;;;3.83;0.70;;;4.10;99.90;;;;;;6216992;23;20039;-76
2024/01/14 08:58:41;;;;;;;6.57;0.90;;;4.10;99.90;;;;;;6216173;23;20019;-76
2024/01/14 09:01:07;;;;;;;9.18;1.00;;;4.10;99.90;;;;;;6216392;23;20016;-76
2024/01/14 09:03:32;;;;;;;4.13;0.82;;;4.20;99.90;;;;;;6216920;23;20066;-74
2024/01/14 09:05:58;;;;;;;8.02;0.90;;;4.20;99.90;;;;;;6189944;23;20049;-75
2024/01/14 09:08:24;;;;;;;5.13;0.63;;;4.20;99.90;;;;;;6190261;23;20385;-75
2024/01/14 09:10:50;;;;;;;7.15;0.80;;;4.20;99.90;;;;;;6189881;23;20017;-74
2024/01/14 09:13:15;;;;;;;5.75;0.80;;;4.20;99.90;;;;;;6189659;23;20073;-75
2024/01/14 09:15:41;;;;;;;6.82;0.80;;;4.30;99.90;;;;;;6216821;23;20044;-74
2024/01/14 09:18:06;;;;;;;4.30;0.88;;;4.30;99.90;;;;;;6189509;23;20108;-73
2024/01/14 09:20:32;;;;;;;5.53;0.90;;;4.20;99.90;;;;;;6216525;23;20012;-73
2024/01/14 09:22:58;;;;;;;5.93;1.00;;;4.30;99.90;;;;;;6189628;23;20012;-75
2024/01/14 09:25:23;;;;;;;10.98;1.42;;;4.30;99.90;;;;;;6189887;23;20080;-75
2024/01/14 09:27:50;;;;;;;7.80;1.20;;;4.30;99.90;;;;;;6190026;23;20039;-76
2024/01/14 09:30:15;;;;;;;2.75;0.80;;;4.30;99.90;;;;;;6189445;23;20094;-76
2024/01/14 09:32:41;;;;;;;7.70;1.55;;;4.30;99.90;;;;;;6216522;23;20012;-76
2024/01/14 09:35:08;;;;;;;6.88;1.20;;;4.30;99.90;;;;;;6216203;23;20009;-75
2024/01/14 09:37:34;;;;;;;6.43;1.33;;;4.30;99.90;;;;;;6189600;23;20009;-76
2024/01/14 09:39:59;;;;;;;5.53;1.70;;;4.30;99.90;;;;;;6189446;23;20047;-75
2024/01/14 09:42:33;;;;;;;6.30;1.25;;;4.30;99.90;;;;;;6216350;23;20021;-76
2024/01/14 09:45:00;;;;;;;5.55;1.05;;;4.30;99.90;;;;;;6216129;23;20013;-76
2024/01/14 09:47:27;;;;;;;4.22;1.00;;;4.30;99.90;;;;;;6189466;23;20135;-76
2024/01/14 09:49:54;;;;;;;1.83;0.85;;;4.30;99.90;;;;;;6216279;23;20024;-76
2024/01/14 09:52:21;;;;;;;4.32;1.58;;;4.30;99.90;;;;;;6189010;23;20020;-75
2024/01/14 09:54:47;;;;;;;5.05;1.17;;;4.30;99.90;;;;;;6189424;23;20023;-76
2024/01/14 09:57:17;;;;;;;6.15;1.45;;;4.30;99.90;;;;;;6189313;23;20048;-76
2024/01/14 09:59:43;;;;;;;4.80;1.02;;;4.40;99.90;;;;;;6215755;23;20443;-76
2024/01/14 10:02:11;;;;;;;7.35;1.30;;;4.40;99.90;;;;;;6164295;23;20023;-75
2024/01/14 10:04:42;;;;;;;6.35;1.38;;;4.30;99.90;;;;;;6216226;23;20363;-76
2024/01/14 10:07:09;;;;;;;10.88;1.30;;;4.40;99.90;;;;;;6189311;23;20426;-75
2024/01/14 10:09:35;;;;;;;6.18;1.25;;;4.50;99.90;;;;;;6216066;23;20008;-75
2024/01/14 10:12:02;;;;;;;6.20;1.35;;;4.50;99.90;;;;;;6189089;23;20057;-76
2024/01/14 10:14:28;;;;;;;14.25;4.88;;;4.50;99.90;;;;;;6164440;23;20013;-76
2024/01/14 10:16:59;;;;;;;9.55;3.97;;;4.50;99.90;;;;;;6189148;23;20090;-73
2024/01/14 10:19:25;;;;;;;9.43;2.42;;;4.50;99.90;;;;;;6216014;23;20017;-75
2024/01/14 10:21:55;;;;;;;6.15;1.17;;;4.50;99.90;;;;;;6164400;23;20465;-76
2024/01/14 10:24:22;;;;;;;7.20;1.10;;;4.60;99.90;;;;;;6216437;23;20023;-76
2024/01/14 10:26:52;;;;;;;8.18;2.20;;;4.60;99.90;;;;;;6188885;23;20435;-75
2024/01/14 10:29:19;;;;;;;9.60;3.00;;;4.60;99.90;;;;;;6189114;23;20395;-77
2024/01/14 10:31:45;;;;;;;8.77;2.13;;;4.70;99.90;;;;;;6215623;23;20012;-74
2024/01/14 10:34:10;;;;;;;7.55;1.40;;;4.70;99.90;;;;;;6189072;23;20012;-75
2024/01/14 10:36:37;;;;;;;9.48;1.30;;;4.70;99.90;;;;;;6215350;23;20004;-74
2024/01/14 10:39:04;;;;;;;5.90;1.00;;;4.70;99.90;;;;;;6215857;23;20004;-75
2024/01/14 10:41:29;;;;;;;6.45;1.42;;;4.70;99.90;;;;;;6188921;23;20027;-76
2024/01/14 10:43:55;;;;;;;10.45;1.38;;;4.70;99.90;;;;;;6188964;23;20052;-76
2024/01/14 10:46:23;;;;;;;5.88;1.40;;;4.70;99.90;;;;;;6215760;23;20059;-74
2024/01/14 10:49:08;;;;;;;6.35;1.00;;;4.80;99.90;;;;;;6188944;23;20012;-74
2024/01/14 10:51:37;;;;;;;;;;;4.80;99.90;;;;;;6189336;23;20020;-74
2024/01/14 10:54:09;;;;;;;10.00;1.45;;;4.80;99.90;;;;;;6188882;23;19911;-73
2024/01/14 10:56:40;;;;;;;5.15;1.05;;;4.90;99.90;;;;;;6215894;23;20070;-74
2024/01/14 10:59:10;;;;;;;5.53;0.93;;;5.00;99.90;;;;;;6216113;23;20287;-73
2024/01/14 11:01:44;;;;;;;7.00;1.08;;;5.00;99.90;;;;;;6188335;23;20009;-74
2024/01/14 11:04:10;;;;;;;2.22;0.60;;;5.00;99.90;;;;;;6188797;23;20504;-75
2024/01/14 11:06:37;;;;;;;4.53;1.27;;;5.10;99.90;;;;;;6215669;23;20013;-76
2024/01/14 11:09:03;;;;;;;7.45;1.35;;;5.00;99.90;;;;;;6188854;23;20016;-75
2024/01/14 11:11:41;;;;;;;5.82;1.20;;;4.90;99.90;;;;;;6188789;23;20092;-75
2024/01/14 11:14:18;;;;;;;4.53;0.80;;;4.80;99.90;;;;;;6188941;23;20013;-75
2024/01/14 11:17:03;;;;;;;6.82;1.08;;;4.80;99.90;;;;;;6189892;23;20067;-76
2024/01/14 11:19:34;;;;;;;5.78;1.00;;;4.80;99.90;;;;;;6188581;23;20013;-73
2024/01/14 11:22:18;;;;;;;3.75;0.77;;;4.70;99.90;;;;;;6215627;23;20013;-74
2024/01/14 11:24:43;;;;;;;9.15;1.80;;;4.70;99.90;;;;;;6164065;23;20008;-76
2024/01/14 11:27:09;;;;;;;7.63;1.48;;;4.70;99.90;;;;;;6189252;23;20120;-76
2024/01/14 11:29:36;;;;;;;10.55;2.90;;;4.70;99.90;;;;;;6188663;23;20027;-76
2024/01/14 11:32:10;;;;;;;3.28;1.30;;;4.80;99.90;;;;;;6188671;23;20020;-75
2024/01/14 11:34:46;;;;;;;;;;;4.80;99.90;;;;;;6189246;23;20016;-74
2024/01/14 11:37:29;;;;;;;5.68;1.27;;;4.80;99.90;;;;;;6215249;23;19919;-74
2024/01/14 11:40:11;;;;;;;4.47;0.70;;;4.80;99.90;;;;;;6188601;23;20020;-74
2024/01/14 11:42:46;;;;;;;5.70;1.20;;;4.80;99.90;;;;;;6163823;23;20477;-76
2024/01/14 11:45:24;;;;;;;2.95;0.82;;;4.80;99.90;;;;;;6215617;23;20009;-75
2024/01/14 11:47:50;;;;;;;3.72;0.80;;;4.90;99.90;;;;;;6189249;23;20343;-76
2024/01/14 11:50:18;;;;;;;5.28;1.23;;;5.00;99.90;;;;;;6217392;23;20012;-75
2024/01/14 11:52:49;;;;;;;6.25;1.35;;;4.90;99.90;;;;;;6190624;23;20063;-76
2024/01/14 11:55:18;;;;;;;5.13;1.48;;;5.00;99.90;;;;;;6217579;23;20011;-76
2024/01/14 11:57:47;;;;;;;6.35;1.33;;;5.00;99.90;;;;;;6190536;23;20017;-75
2024/01/14 12:00:15;;;;;;;5.55;1.60;;;5.00;99.90;;;;;;6216982;23;20016;-74
2024/01/14 12:02:41;;;;;;;8.13;1.73;;;5.00;99.90;;;;;;6186121;23;20084;-74
2024/01/14 12:05:21;;;;;;;6.30;1.55;;;5.00;99.90;;;;;;6186206;23;20063;-72
2024/01/14 12:07:48;;;;;;;5.90;1.80;;;4.90;99.90;;;;;;6185461;23;20482;-74
2024/01/14 12:10:15;;;;;;;6.38;1.85;;;4.90;99.90;;;;;;6187020;23;20020;-73
2024/01/14 12:12:41;;;;;;;9.48;1.40;;;4.90;99.90;;;;;;6187001;23;20013;-76
2024/01/14 12:15:08;;;;;;;5.22;1.55;;;4.90;99.90;;;;;;6185441;23;20043;-74
2024/01/14 12:17:34;;;;;;;7.05;1.30;;;4.90;99.90;;;;;;6185330;23;20013;-74
2024/01/14 12:20:01;;;;;;;4.57;1.05;;;4.90;99.90;;;;;;6187142;23;20394;-76
2024/01/14 12:22:27;;;;;;;18.42;1.73;;;4.90;99.90;;;;;;6185156;23;20056;-76
2024/01/14 12:24:53;;;;;;;6.60;1.10;;;4.90;99.90;;;;;;6185282;23;20013;-75
2024/01/14 12:27:19;;;;;;;10.20;1.63;;;4.90;99.90;;;;;;6185281;23;20009;-74
2024/01/14 12:29:45;;;;;;;5.30;1.50;;;5.00;99.90;;;;;;6186956;23;20465;-73
2024/01/14 12:32:11;;;;;;;5.85;1.58;;;5.00;99.90;;;;;;6186575;23;20520;-74
2024/01/14 12:34:38;;;;;;;8.18;1.90;;;5.00;99.90;;;;;;6185172;23;20013;-76
2024/01/14 12:37:04;;;;;;;6.70;1.40;;;4.90;99.90;;;;;;6186726;23;20069;-76
2024/01/14 12:39:30;;;;;;;12.57;1.98;;;4.90;99.90;;;;;;6185218;23;20015;-74
2024/01/14 12:41:56;;;;;;;9.27;2.80;;;4.90;99.90;;;;;;6186716;23;20076;-74
2024/01/14 12:44:24;;;;;;;10.80;2.30;;;4.90;99.90;;;;;;6185137;23;20339;-74
2024/01/14 12:46:52;;;;;;;15.00;4.78;;;5.00;99.90;;;;;;6186932;23;20028;-76
2024/01/14 12:49:18;;;;;;;10.00;3.70;;;4.90;99.90;;;;;;6185261;23;20017;-76
2024/01/14 12:51:44;;;;;;;11.93;3.50;;;4.90;99.90;;;;;;6186975;23;20013;-75
2024/01/14 12:54:09;;;;;;;9.40;2.85;;;4.90;99.90;;;;;;6160277;23;20124;-74
2024/01/14 12:56:37;;;;;;;13.32;3.15;;;4.90;99.90;;;;;;6186575;23;20013;-76
2024/01/14 12:59:03;;;;;;;7.43;3.08;;;4.90;99.90;;;;;;6184634;23;20389;-75
2024/01/14 13:01:29;;;;;;;11.18;3.03;;;4.80;99.90;;;;;;6189681;23;20017;-75
2024/01/14 13:03:55;;;;;;;12.25;3.05;;;4.80;99.90;;;;;;6216844;23;20013;-75
2024/01/14 13:06:20;;;;;;;13.63;3.80;;;4.80;99.90;;;;;;6216224;23;20352;-76
2024/01/14 13:08:47;;;;;;;10.18;3.08;;;4.80;99.90;;;;;;6189946;23;20012;-76
2024/01/14 13:11:12;;;;;;;7.30;1.98;;;4.80;99.90;;;;;;6189698;23;20013;-75
2024/01/14 13:13:40;;;;;;;18.60;4.47;;;4.80;99.90;;;;;;6189876;23;20059;-76
2024/01/14 13:16:06;;;;;;;17.77;6.88;;;4.70;99.90;;;;;;6165436;23;20059;-76
2024/01/14 13:18:31;;;;;;;10.85;2.35;;;4.70;99.90;;;;;;6189756;23;20009;-76
2024/01/14 13:20:57;;;;;;;13.25;2.88;;;4.70;99.90;;;;;;6189776;23;20461;-76
2024/01/14 13:23:23;;;;;;;5.43;1.02;;;4.70;99.90;;;;;;6216366;23;20004;-76
2024/01/14 13:25:49;;;;;;;8.23;1.15;;;4.70;99.90;;;;;;6216231;23;20009;-74
2024/01/14 13:28:21;;;;;;;5.07;1.02;;;4.60;99.90;;;;;;6216433;23;20011;-75
2024/01/14 13:30:48;;;;;;;9.45;1.20;;;4.60;99.90;;;;;;6216519;23;20012;-77
2024/01/14 13:33:15;;;;;;;4.53;0.90;;;4.70;99.90;;;;;;6216268;23;20020;-77
2024/01/14 13:35:40;;;;;;;6.38;1.25;;;4.70;99.90;;;;;;6216566;23;20343;-76
2024/01/14 13:38:06;;;;;;;6.90;1.30;;;4.80;99.90;;;;;;6164641;23;20019;-74
2024/01/14 13:40:33;;;;;;;7.30;1.52;;;4.80;99.90;;;;;;6189298;23;20483;-73
2024/01/14 13:42:59;;;;;;;6.93;1.08;;;4.80;99.90;;;;;;6189522;23;20012;-74
2024/01/14 13:45:24;;;;;;;6.25;1.05;;;4.80;99.90;;;;;;6189551;23;20493;-76
2024/01/14 13:47:50;;;;;;;4.85;1.30;;;4.80;99.90;;;;;;6216481;23;20044;-78
2024/01/14 13:50:16;;;;;;;7.45;2.15;;;4.80;99.90;;;;;;6216311;23;20016;-74
2024/01/14 13:52:42;;;;;;;8.63;1.95;;;4.80;99.90;;;;;;6189430;23;20012;-75
2024/01/14 13:55:07;;;;;;;17.77;2.13;;;4.90;99.90;;;;;;6189432;23;20346;-74
2024/01/14 13:57:33;;;;;;;13.18;1.73;;;4.80;99.90;;;;;;6216106;23;20020;-76
2024/01/14 13:59:59;;;;;;;6.55;1.10;;;4.80;99.90;;;;;;6189234;23;20017;-74
2024/01/14 14:02:26;;;;;;;8.52;1.23;;;4.80;99.90;;;;;;6189300;23;20446;-74
2024/01/14 14:04:52;;;;;;;10.70;1.73;;;4.80;99.90;;;;;;6216195;23;20012;-73
2024/01/14 14:07:17;;;;;;;4.30;0.85;;;4.70;99.90;;;;;;6189273;23;20008;-76
2024/01/14 14:09:43;;;;;;;7.68;1.20;;;4.70;99.90;;;;;;6216196;23;20018;-75
2024/01/14 14:12:09;;;;;;;7.28;1.02;;;4.70;99.90;;;;;;6215705;23;20016;-74
2024/01/14 14:14:35;;;;;;;10.43;2.00;;;4.70;99.90;;;;;;6216034;23;20092;-77
2024/01/14 14:17:01;;;;;;;8.40;1.58;;;4.60;99.90;;;;;;6189094;23;20051;-75
2024/01/14 14:19:27;;;;;;;6.45;1.17;;;4.60;99.90;;;;;;6216030;23;20008;-74
2024/01/14 14:21:55;;;;;;;9.07;1.70;;;4.60;99.90;;;;;;6189695;23;20311;-77
2024/01/14 14:24:21;;;;;;;8.32;0.80;;;4.50;99.90;;;;;;6216751;23;20016;-74
2024/01/14 14:26:47;;;;;;;5.60;1.10;;;4.50;99.90;;;;;;6189611;23;20012;-75
2024/01/14 14:29:12;;;;;;;6.75;1.42;;;4.50;99.90;;;;;;6189351;23;20013;-76
2024/01/14 14:31:39;;;;;;;16.77;5.38;;;4.50;99.90;;;;;;6189448;23;20019;-76
2024/01/14 14:34:05;;;;;;;17.27;4.35;;;4.40;99.90;;;;;;6215902;23;20020;-76
2024/01/14 14:36:31;;;;;;;30.05;7.53;;;4.40;99.90;;;;;;6189448;23;20035;-75
2024/01/14 14:38:56;;;;;;;26.95;6.35;;;4.40;99.90;;;;;;6189203;23;20005;-76
2024/01/14 14:41:23;;;;;;;12.98;3.30;;;4.40;99.90;;;;;;6189663;23;20502;-77
2024/01/14 14:43:49;;;;;;;27.25;7.68;;;4.30;99.90;;;;;;6189199;23;20159;-76
2024/01/14 14:46:14;;;;;;;30.17;9.77;;;4.30;99.90;;;;;;6216061;23;20013;-75
2024/01/14 14:48:40;;;;;;;16.80;2.97;;;4.30;99.90;;;;;;6215979;23;20466;-76
2024/01/14 14:51:05;;;;;;;7.72;2.00;;;4.20;99.90;;;;;;6215881;23;20346;-75
2024/01/14 14:53:32;;;;;;;22.10;7.18;;;4.20;99.90;;;;;;6189368;23;20024;-77
2024/01/14 14:55:58;;;;;;;15.57;5.32;;;4.20;99.90;;;;;;6214349;23;20062;-76
2024/01/14 14:58:24;;;;;;;27.27;8.52;;;4.20;99.90;;;;;;6189034;23;20013;-77
2024/01/14 15:00:49;;;;;;;10.95;4.20;;;4.20;99.90;;;;;;6215947;23;20091;-75
2024/01/14 15:03:15;;;;;;;12.30;4.05;;;4.10;99.90;;;;;;6216112;23;20494;-75
2024/01/14 15:05:40;;;;;;;17.50;5.78;;;4.10;99.90;;;;;;6189054;23;20432;-73
2024/01/14 15:08:06;;;;;;;17.80;5.65;;;4.10;99.90;;;;;;6164062;23;20054;-76
2024/01/14 15:10:32;;;;;;;12.38;4.50;;;4.10;99.90;;;;;;6189008;23;20063;-76
2024/01/14 15:12:58;;;;;;;6.90;2.63;;;4.10;99.90;;;;;;6215424;23;20082;-76
2024/01/14 15:15:25;;;;;;;9.57;1.70;;;4.00;99.90;;;;;;6215929;23;20013;-75
2024/01/14 15:17:50;;;;;;;6.63;1.77;;;4.00;99.90;;;;;;6189168;23;20009;-75
2024/01/14 15:20:16;;;;;;;6.05;1.13;;;3.90;99.90;;;;;;6189071;23;20075;-75
2024/01/14 15:22:42;;;;;;;5.40;1.30;;;4.00;99.90;;;;;;6216991;23;20019;-75
2024/01/14 15:25:07;;;;;;;5.10;1.13;;;4.00;99.90;;;;;;6191151;23;20012;-75
2024/01/14 15:27:35;;;;;;;5.60;1.38;;;3.90;99.90;;;;;;6166066;23;20032;-74
2024/01/14 15:30:02;;;;;;;7.45;1.20;;;3.90;99.90;;;;;;6191189;23;20096;-74
2024/01/14 15:32:28;;;;;;;9.73;0.88;;;3.90;99.90;;;;;;6191375;23;20043;-76
2024/01/14 15:34:53;;;;;;;16.58;1.80;;;3.90;99.90;;;;;;6191210;23;20016;-75
2024/01/14 15:37:19;;;;;;;23.90;2.33;;;3.80;99.90;;;;;;6191199;23;20020;-74
2024/01/14 15:39:45;;;;;;;6.65;1.20;;;3.80;99.90;;;;;;6191008;23;20059;-73
2024/01/14 15:42:11;;;;;;;13.68;2.28;;;3.90;99.90;;;;;;6217635;23;20469;-76
2024/01/14 15:44:36;;;;;;;18.45;3.95;;;3.80;99.90;;;;;;6217953;23;20008;-75
2024/01/14 15:47:02;;;;;;;7.93;1.40;;;3.80;99.90;;;;;;6218427;23;20008;-74
2024/01/14 15:49:30;;;;;;;6.53;1.10;;;3.80;99.90;;;;;;6217691;23;20048;-77
2024/01/14 15:51:56;;;;;;;9.73;1.52;;;3.70;99.90;;;;;;6166104;23;20024;-73
2024/01/14 15:54:22;;;;;;;7.38;1.25;;;3.70;99.90;;;;;;6191128;23;20070;-76
2024/01/14 15:56:47;;;;;;;10.65;1.25;;;3.80;99.90;;;;;;6191356;23;20020;-74
2024/01/14 15:59:13;;;;;;;8.68;1.20;;;3.80;99.90;;;;;;6217597;23;20021;-76
2024/01/14 16:01:39;;;;;;;7.35;1.50;;;3.70;99.90;;;;;;6189978;23;20023;-74
2024/01/14 16:04:05;;;;;;;5.95;1.52;;;3.60;99.90;;;;;;6190518;23;20020;-76
2024/01/14 16:06:30;;;;;;;4.72;1.50;;;3.60;99.90;;;;;;6190334;23;20040;-75
2024/01/14 16:08:56;;;;;;;6.53;1.20;;;3.60;99.90;;;;;;6217409;23;20092;-75
2024/01/14 16:11:21;;;;;;;5.63;1.50;;;3.60;99.90;;;;;;6190514;23;20020;-74
2024/01/14 16:13:47;;;;;;;8.38;1.25;;;3.60;99.90;;;;;;6217156;23;20406;-75
2024/01/14 16:16:13;;;;;;;7.85;1.40;;;3.60;99.90;;;;;;6217029;23;20009;-76
2024/01/14 16:18:39;;;;;;;4.57;1.45;;;3.60;99.90;;;;;;6190230;23;20013;-76
2024/01/14 16:21:05;;;;;;;9.05;1.45;;;3.60;99.90;;;;;;6190379;23;20449;-76
2024/01/14 16:23:32;;;;;;;11.63;2.10;;;3.60;99.90;;;;;;6190402;23;20049;-76
2024/01/14 16:25:57;;;;;;;8.93;1.70;;;3.60;99.90;;;;;;6190316;23;20492;-75
2024/01/14 16:28:23;;;;;;;7.40;1.88;;;3.60;99.90;;;;;;6217335;23;20060;-75
2024/01/14 16:30:49;;;;;;;6.47;1.27;;;3.60;99.90;;;;;;6217538;23;20330;-76
2024/01/14 16:33:15;;;;;;;6.00;1.15;;;3.60;99.90;;;;;;6217360;23;20495;-75
2024/01/14 16:35:41;;;;;;;7.80;1.50;;;3.60;99.90;;;;;;6189422;23;20086;-73
2024/01/14 16:38:07;;;;;;;9.13;1.10;;;3.60;99.90;;;;;;6216790;23;20013;-75
2024/01/14 16:40:32;;;;;;;7.30;1.35;;;3.50;99.90;;;;;;6189925;23;20012;-75
2024/01/14 16:42:58;;;;;;;7.93;0.90;;;3.50;99.90;;;;;;6165512;23;20338;-75
2024/01/14 16:45:24;;;;;;;5.60;0.98;;;3.40;99.90;;;;;;6190207;23;20019;-75
2024/01/14 16:47:50;;;;;;;8.57;1.38;;;3.40;99.90;;;;;;6190063;23;20084;-75
2024/01/14 16:50:15;;;;;;;7.38;1.00;;;3.40;99.90;;;;;;6216947;23;20024;-73
2024/01/14 16:52:41;;;;;;;4.60;1.10;;;3.30;99.90;;;;;;6190026;23;20127;-75
2024/01/14 16:55:07;;;;;;;6.20;0.80;;;3.20;99.90;;;;;;6189773;23;20013;-76
2024/01/14 16:57:33;;;;;;;5.20;1.17;;;3.20;99.90;;;;;;6189203;23;20477;-75
2024/01/14 16:59:59;;;;;;;8.20;1.95;;;3.10;99.90;;;;;;6216909;23;20367;-75
2024/01/14 17:02:25;;;;;;;7.53;1.55;;;3.10;99.90;;;;;;6190014;23;20078;-74
2024/01/14 17:04:51;;;;;;;6.13;1.73;;;3.10;99.90;;;;;;6216651;23;20008;-75
2024/01/14 17:07:16;;;;;;;8.30;1.52;;;3.10;99.90;;;;;;6189898;23;20015;-74
2024/01/14 17:09:43;;;;;;;6.47;1.15;;;3.10;99.90;;;;;;6190028;23;20020;-74
2024/01/14 17:12:08;;;;;;;7.72;1.20;;;3.10;99.90;;;;;;6216610;23;20393;-75
2024/01/14 17:14:34;;;;;;;9.35;4.25;;;3.10;99.90;;;;;;6189728;23;20092;-73
2024/01/14 17:17:00;;;;;;;10.98;3.10;;;3.10;99.90;;;;;;6190005;23;20013;-74
2024/01/14 17:19:25;;;;;;;36.65;3.25;;;3.00;99.90;;;;;;6189717;23;20458;-73